Strona główna
METAR-TAF:

METAR-TAF

Lotnisko :

Port lotniczy Kíthira

Kíthira, Grecja

Szerokość geograficzna: 36-17-21N, Długość geograficzna: 023-01-24E, wysokość: 321 m

Aktualna obserwacja pogody

Raport powstał 4 godziny i 53 minut temu, godzina 16:50 UTC
Wiatr 22 kt od północny wschód
Temperatura 11°C
Wilgotność 76%
Ciśnienie 1026 hPa
Widzialność 10 km lub więcej
Mało chmury na wysokości 1800 ft

METAR: LGKC 231650Z 05022KT 9999 FEW018 11/07 Q1026

czas: 23:43 (21:43 UTC)

Prognoza

Raport powstał 1 godzina i 43 minut temu, godzina 20:00 UTC
Prognoza ważna od 23 godzina 21 UTC do 24 godzina 06 UTC
Wiatr 28 kt od północny wschód w porywach dochodzący do 38 kt
Widzialność 10 km lub więcej
Mało chmury na wysokości 2000 ft

TAF: LGKC 232000Z 2321/2406 05028G38KT 9999 FEW020

Obserwacja i prognoza pogody dla ponad 4000 lotnisk (raport METAR i TAF).

Dostępne stacje oznaczono żółtymi i czerwonymi punktami na mapie.

Najedź kursorem aby zobaczyć nazwę stacji.

Kliknij aby zobaczyć obserwacje i prognozy pogody.

Aby zmienić mapę: kliknij na zielony przycisk z czarnym krzyżykiem, aby powiększyć; na zielony przycisk z myślnikiem, aby pomniejszyć; na zielone strzałki, aby przejść do map sąsiednich.


METAR-TAF: